sensor_id;sensor_type;location;lat;lon;timestamp;P1;durP1;ratioP1;P2;durP2;ratioP2
53072;SDS011;38955;48.916;2.336;2024-02-15T00:01:48;17.40;;;8.38;;
53072;SDS011;38955;48.916;2.336;2024-02-15T00:04:02;17.55;;;7.28;;
53072;SDS011;38955;48.916;2.336;2024-02-15T00:06:14;16.33;;;7.90;;
53072;SDS011;38955;48.916;2.336;2024-02-15T00:08:28;17.77;;;7.30;;
53072;SDS011;38955;48.916;2.336;2024-02-15T00:10:42;17.80;;;7.68;;
53072;SDS011;38955;48.916;2.336;2024-02-15T00:13:00;15.65;;;7.55;;
53072;SDS011;38955;48.916;2.336;2024-02-15T00:15:14;16.67;;;7.63;;
53072;SDS011;38955;48.916;2.336;2024-02-15T00:17:27;12.93;;;6.70;;
53072;SDS011;38955;48.916;2.336;2024-02-15T00:19:45;18.38;;;9.02;;
53072;SDS011;38955;48.916;2.336;2024-02-15T00:21:58;18.15;;;8.73;;
53072;SDS011;38955;48.916;2.336;2024-02-15T00:24:33;17.00;;;8.05;;
53072;SDS011;38955;48.916;2.336;2024-02-15T00:26:55;13.90;;;6.57;;
53072;SDS011;38955;48.916;2.336;2024-02-15T00:29:11;14.18;;;6.07;;
53072;SDS011;38955;48.916;2.336;2024-02-15T00:31:23;13.50;;;6.95;;
53072;SDS011;38955;48.916;2.336;2024-02-15T00:33:38;15.63;;;6.90;;
53072;SDS011;38955;48.916;2.336;2024-02-15T00:35:56;9.73;;;5.15;;
53072;SDS011;38955;48.916;2.336;2024-02-15T00:38:16;14.48;;;5.45;;
53072;SDS011;38955;48.916;2.336;2024-02-15T00:40:30;13.50;;;5.53;;
53072;SDS011;38955;48.916;2.336;2024-02-15T00:42:44;16.60;;;5.22;;
53072;SDS011;38955;48.916;2.336;2024-02-15T00:44:54;10.65;;;4.95;;
53072;SDS011;38955;48.916;2.336;2024-02-15T00:47:03;13.10;;;5.28;;
53072;SDS011;38955;48.916;2.336;2024-02-15T00:49:16;13.70;;;5.05;;
53072;SDS011;38955;48.916;2.336;2024-02-15T00:51:33;11.40;;;4.80;;
53072;SDS011;38955;48.916;2.336;2024-02-15T00:53:42;10.73;;;4.32;;
53072;SDS011;38955;48.916;2.336;2024-02-15T00:55:55;10.25;;;4.43;;
53072;SDS011;38955;48.916;2.336;2024-02-15T00:58:10;15.30;;;5.00;;
53072;SDS011;38955;48.916;2.336;2024-02-15T01:00:31;10.20;;;4.07;;
53072;SDS011;38955;48.916;2.336;2024-02-15T01:02:44;9.45;;;4.43;;
53072;SDS011;38955;48.916;2.336;2024-02-15T01:04:59;13.93;;;4.40;;
53072;SDS011;38955;48.916;2.336;2024-02-15T01:07:13;12.93;;;4.18;;
53072;SDS011;38955;48.916;2.336;2024-02-15T01:09:26;8.82;;;3.63;;
53072;SDS011;38955;48.916;2.336;2024-02-15T01:11:55;15.00;;;4.28;;
53072;SDS011;38955;48.916;2.336;2024-02-15T01:14:19;10.32;;;3.90;;
53072;SDS011;38955;48.916;2.336;2024-02-15T01:16:50;13.48;;;4.80;;
53072;SDS011;38955;48.916;2.336;2024-02-15T01:19:07;10.27;;;4.07;;
53072;SDS011;38955;48.916;2.336;2024-02-15T01:21:29;12.32;;;4.20;;
53072;SDS011;38955;48.916;2.336;2024-02-15T01:23:51;8.00;;;3.47;;
53072;SDS011;38955;48.916;2.336;2024-02-15T01:26:12;11.02;;;4.32;;
53072;SDS011;38955;48.916;2.336;2024-02-15T01:28:27;8.57;;;3.40;;
53072;SDS011;38955;48.916;2.336;2024-02-15T01:30:38;7.30;;;3.65;;
53072;SDS011;38955;48.916;2.336;2024-02-15T01:32:55;5.55;;;2.95;;
53072;SDS011;38955;48.916;2.336;2024-02-15T01:35:08;10.45;;;3.67;;
53072;SDS011;38955;48.916;2.336;2024-02-15T01:37:19;10.07;;;3.65;;
53072;SDS011;38955;48.916;2.336;2024-02-15T01:39:30;8.68;;;3.72;;
53072;SDS011;38955;48.916;2.336;2024-02-15T01:41:50;8.68;;;3.25;;
53072;SDS011;38955;48.916;2.336;2024-02-15T01:44:25;7.10;;;3.55;;
53072;SDS011;38955;48.916;2.336;2024-02-15T01:46:44;8.45;;;3.95;;
53072;SDS011;38955;48.916;2.336;2024-02-15T01:49:05;6.30;;;3.05;;
53072;SDS011;38955;48.916;2.336;2024-02-15T01:51:25;7.55;;;3.55;;
53072;SDS011;38955;48.916;2.336;2024-02-15T01:53:39;10.05;;;3.50;;
53072;SDS011;38955;48.916;2.336;2024-02-15T01:55:54;7.85;;;3.33;;
53072;SDS011;38955;48.916;2.336;2024-02-15T01:58:10;7.25;;;2.90;;
53072;SDS011;38955;48.916;2.336;2024-02-15T02:00:26;9.77;;;3.05;;
53072;SDS011;38955;48.916;2.336;2024-02-15T02:02:39;10.63;;;3.65;;
53072;SDS011;38955;48.916;2.336;2024-02-15T02:04:53;7.30;;;2.47;;
53072;SDS011;38955;48.916;2.336;2024-02-15T02:07:04;7.65;;;3.95;;
53072;SDS011;38955;48.916;2.336;2024-02-15T02:09:14;9.43;;;3.95;;
53072;SDS011;38955;48.916;2.336;2024-02-15T02:11:30;7.35;;;2.83;;
53072;SDS011;38955;48.916;2.336;2024-02-15T02:13:41;8.30;;;3.25;;
53072;SDS011;38955;48.916;2.336;2024-02-15T02:15:54;6.00;;;3.17;;
53072;SDS011;38955;48.916;2.336;2024-02-15T02:18:07;6.55;;;2.55;;
53072;SDS011;38955;48.916;2.336;2024-02-15T02:20:18;7.82;;;2.65;;
53072;SDS011;38955;48.916;2.336;2024-02-15T02:22:36;6.80;;;3.95;;
53072;SDS011;38955;48.916;2.336;2024-02-15T02:25:03;10.60;;;4.40;;
53072;SDS011;38955;48.916;2.336;2024-02-15T02:27:18;11.75;;;3.97;;
53072;SDS011;38955;48.916;2.336;2024-02-15T02:29:30;9.13;;;5.13;;
53072;SDS011;38955;48.916;2.336;2024-02-15T02:31:42;13.10;;;5.45;;
53072;SDS011;38955;48.916;2.336;2024-02-15T02:33:54;9.75;;;4.95;;
53072;SDS011;38955;48.916;2.336;2024-02-15T02:36:10;10.48;;;4.82;;
53072;SDS011;38955;48.916;2.336;2024-02-15T02:38:25;8.20;;;4.68;;
53072;SDS011;38955;48.916;2.336;2024-02-15T02:40:51;10.35;;;4.68;;
53072;SDS011;38955;48.916;2.336;2024-02-15T02:43:10;10.60;;;4.88;;
53072;SDS011;38955;48.916;2.336;2024-02-15T02:45:33;10.52;;;5.38;;
53072;SDS011;38955;48.916;2.336;2024-02-15T02:47:54;14.32;;;6.85;;
53072;SDS011;38955;48.916;2.336;2024-02-15T02:50:24;9.38;;;5.90;;
53072;SDS011;38955;48.916;2.336;2024-02-15T02:53:16;10.98;;;5.82;;
53072;SDS011;38955;48.916;2.336;2024-02-15T02:55:38;10.82;;;4.55;;
53072;SDS011;38955;48.916;2.336;2024-02-15T02:58:08;10.40;;;4.68;;
53072;SDS011;38955;48.916;2.336;2024-02-15T03:00:33;7.28;;;4.30;;
53072;SDS011;38955;48.916;2.336;2024-02-15T03:03:02;11.35;;;3.70;;
53072;SDS011;38955;48.916;2.336;2024-02-15T03:05:22;8.43;;;3.28;;
53072;SDS011;38955;48.916;2.336;2024-02-15T03:07:43;6.15;;;3.25;;
53072;SDS011;38955;48.916;2.336;2024-02-15T03:09:59;5.88;;;3.10;;
53072;SDS011;38955;48.916;2.336;2024-02-15T03:12:33;6.70;;;3.13;;
53072;SDS011;38955;48.916;2.336;2024-02-15T03:14:49;7.20;;;2.55;;
53072;SDS011;38955;48.916;2.336;2024-02-15T03:19:12;9.10;;;3.40;;
53072;SDS011;38955;48.916;2.336;2024-02-15T03:21:26;9.60;;;3.75;;
53072;SDS011;38955;48.916;2.336;2024-02-15T03:23:48;9.25;;;4.45;;
53072;SDS011;38955;48.916;2.336;2024-02-15T03:26:01;10.60;;;4.00;;
53072;SDS011;38955;48.916;2.336;2024-02-15T03:28:12;6.32;;;3.13;;
53072;SDS011;38955;48.916;2.336;2024-02-15T03:30:31;5.68;;;3.20;;
53072;SDS011;38955;48.916;2.336;2024-02-15T03:32:45;6.68;;;2.55;;
53072;SDS011;38955;48.916;2.336;2024-02-15T03:35:04;6.80;;;3.05;;
53072;SDS011;38955;48.916;2.336;2024-02-15T03:37:19;6.38;;;2.47;;
53072;SDS011;38955;48.916;2.336;2024-02-15T03:39:32;5.22;;;2.50;;
53072;SDS011;38955;48.916;2.336;2024-02-15T03:41:43;9.07;;;2.35;;
53072;SDS011;38955;48.916;2.336;2024-02-15T03:43:56;7.05;;;2.80;;
53072;SDS011;38955;48.916;2.336;2024-02-15T03:46:11;7.60;;;2.92;;
53072;SDS011;38955;48.916;2.336;2024-02-15T03:48:25;7.40;;;2.63;;
53072;SDS011;38955;48.916;2.336;2024-02-15T03:50:39;7.63;;;2.55;;
53072;SDS011;38955;48.916;2.336;2024-02-15T03:52:57;10.40;;;2.70;;
53072;SDS011;38955;48.916;2.336;2024-02-15T03:55:17;5.25;;;2.17;;
53072;SDS011;38955;48.916;2.336;2024-02-15T03:57:40;7.93;;;3.03;;
53072;SDS011;38955;48.916;2.336;2024-02-15T04:00:06;6.13;;;2.60;;
53072;SDS011;38955;48.916;2.336;2024-02-15T04:02:28;11.60;;;3.30;;
53072;SDS011;38955;48.916;2.336;2024-02-15T04:04:42;6.00;;;2.53;;
53072;SDS011;38955;48.916;2.336;2024-02-15T04:06:55;6.38;;;2.75;;
53072;SDS011;38955;48.916;2.336;2024-02-15T04:09:08;4.82;;;2.55;;
53072;SDS011;38955;48.916;2.336;2024-02-15T04:11:24;9.57;;;3.05;;
53072;SDS011;38955;48.916;2.336;2024-02-15T04:13:44;4.35;;;2.30;;
53072;SDS011;38955;48.916;2.336;2024-02-15T04:15:55;8.32;;;3.03;;
53072;SDS011;38955;48.916;2.336;2024-02-15T04:18:20;10.52;;;3.10;;
53072;SDS011;38955;48.916;2.336;2024-02-15T04:20:33;6.28;;;3.17;;
53072;SDS011;38955;48.916;2.336;2024-02-15T04:22:47;7.80;;;2.90;;
53072;SDS011;38955;48.916;2.336;2024-02-15T04:25:03;8.03;;;2.70;;
53072;SDS011;38955;48.916;2.336;2024-02-15T04:27:33;5.50;;;3.13;;
53072;SDS011;38955;48.916;2.336;2024-02-15T04:30:04;6.38;;;2.50;;
53072;SDS011;38955;48.916;2.336;2024-02-15T04:32:18;8.05;;;3.15;;
53072;SDS011;38955;48.916;2.336;2024-02-15T04:34:33;7.97;;;3.28;;
53072;SDS011;38955;48.916;2.336;2024-02-15T04:36:48;5.63;;;2.72;;
53072;SDS011;38955;48.916;2.336;2024-02-15T04:39:04;8.52;;;3.40;;
53072;SDS011;38955;48.916;2.336;2024-02-15T04:41:31;6.05;;;2.80;;
53072;SDS011;38955;48.916;2.336;2024-02-15T04:43:59;7.18;;;2.40;;
53072;SDS011;38955;48.916;2.336;2024-02-15T04:46:18;5.40;;;2.30;;
53072;SDS011;38955;48.916;2.336;2024-02-15T04:48:36;6.70;;;2.53;;
53072;SDS011;38955;48.916;2.336;2024-02-15T04:50:58;7.75;;;3.28;;
53072;SDS011;38955;48.916;2.336;2024-02-15T04:53:16;7.70;;;3.30;;
53072;SDS011;38955;48.916;2.336;2024-02-15T04:55:39;6.43;;;2.80;;
53072;SDS011;38955;48.916;2.336;2024-02-15T04:58:02;5.63;;;2.75;;
53072;SDS011;38955;48.916;2.336;2024-02-15T05:00:14;7.03;;;2.70;;
53072;SDS011;38955;48.916;2.336;2024-02-15T05:02:28;6.95;;;2.45;;
53072;SDS011;38955;48.916;2.336;2024-02-15T05:04:49;4.65;;;2.38;;
53072;SDS011;38955;48.916;2.336;2024-02-15T05:07:19;7.53;;;2.42;;
53072;SDS011;38955;48.916;2.336;2024-02-15T05:09:32;5.85;;;2.30;;
53072;SDS011;38955;48.916;2.336;2024-02-15T05:11:44;6.70;;;2.95;;
53072;SDS011;38955;48.916;2.336;2024-02-15T05:14:03;7.40;;;2.67;;
53072;SDS011;38955;48.916;2.336;2024-02-15T05:16:25;6.85;;;2.47;;
53072;SDS011;38955;48.916;2.336;2024-02-15T05:18:47;9.70;;;2.70;;
53072;SDS011;38955;48.916;2.336;2024-02-15T05:21:10;11.50;;;2.92;;
53072;SDS011;38955;48.916;2.336;2024-02-15T05:23:42;5.47;;;2.38;;
53072;SDS011;38955;48.916;2.336;2024-02-15T05:26:06;6.30;;;2.60;;
53072;SDS011;38955;48.916;2.336;2024-02-15T05:28:35;6.22;;;2.53;;
53072;SDS011;38955;48.916;2.336;2024-02-15T05:31:08;7.03;;;2.45;;
53072;SDS011;38955;48.916;2.336;2024-02-15T05:33:27;5.15;;;2.45;;
53072;SDS011;38955;48.916;2.336;2024-02-15T05:35:51;10.32;;;2.78;;
53072;SDS011;38955;48.916;2.336;2024-02-15T05:38:13;6.88;;;3.00;;
53072;SDS011;38955;48.916;2.336;2024-02-15T05:40:45;8.32;;;2.90;;
53072;SDS011;38955;48.916;2.336;2024-02-15T05:43:24;5.97;;;2.80;;
53072;SDS011;38955;48.916;2.336;2024-02-15T05:46:20;7.22;;;3.03;;
53072;SDS011;38955;48.916;2.336;2024-02-15T05:48:38;5.53;;;2.67;;
53072;SDS011;38955;48.916;2.336;2024-02-15T05:50:55;5.75;;;2.58;;
53072;SDS011;38955;48.916;2.336;2024-02-15T05:53:14;8.60;;;2.70;;
53072;SDS011;38955;48.916;2.336;2024-02-15T05:55:28;5.13;;;2.70;;
53072;SDS011;38955;48.916;2.336;2024-02-15T05:57:58;6.03;;;3.20;;
53072;SDS011;38955;48.916;2.336;2024-02-15T06:00:24;6.80;;;3.33;;
53072;SDS011;38955;48.916;2.336;2024-02-15T06:03:12;8.57;;;3.00;;
53072;SDS011;38955;48.916;2.336;2024-02-15T06:05:24;11.30;;;3.20;;
53072;SDS011;38955;48.916;2.336;2024-02-15T06:07:36;8.35;;;2.95;;
53072;SDS011;38955;48.916;2.336;2024-02-15T06:09:47;7.28;;;3.00;;
53072;SDS011;38955;48.916;2.336;2024-02-15T06:11:59;9.73;;;2.85;;
53072;SDS011;38955;48.916;2.336;2024-02-15T06:14:11;6.47;;;2.70;;
53072;SDS011;38955;48.916;2.336;2024-02-15T06:16:21;5.75;;;2.63;;
53072;SDS011;38955;48.916;2.336;2024-02-15T06:18:36;7.85;;;3.00;;
53072;SDS011;38955;48.916;2.336;2024-02-15T06:20:47;8.48;;;2.67;;
53072;SDS011;38955;48.916;2.336;2024-02-15T06:23:00;7.03;;;2.85;;
53072;SDS011;38955;48.916;2.336;2024-02-15T06:25:13;6.90;;;2.97;;
53072;SDS011;38955;48.916;2.336;2024-02-15T06:27:29;12.82;;;3.10;;
53072;SDS011;38955;48.916;2.336;2024-02-15T06:29:43;6.07;;;3.13;;
53072;SDS011;38955;48.916;2.336;2024-02-15T06:32:10;6.47;;;3.13;;
53072;SDS011;38955;48.916;2.336;2024-02-15T06:34:38;6.45;;;2.63;;
53072;SDS011;38955;48.916;2.336;2024-02-15T06:37:08;5.75;;;3.20;;
53072;SDS011;38955;48.916;2.336;2024-02-15T06:39:58;5.95;;;2.85;;
53072;SDS011;38955;48.916;2.336;2024-02-15T06:42:10;8.40;;;3.08;;
53072;SDS011;38955;48.916;2.336;2024-02-15T06:44:28;11.52;;;3.10;;
53072;SDS011;38955;48.916;2.336;2024-02-15T06:46:43;6.40;;;2.85;;
53072;SDS011;38955;48.916;2.336;2024-02-15T06:48:55;8.88;;;2.92;;
53072;SDS011;38955;48.916;2.336;2024-02-15T06:51:14;7.53;;;3.15;;
53072;SDS011;38955;48.916;2.336;2024-02-15T06:53:26;6.18;;;2.50;;
53072;SDS011;38955;48.916;2.336;2024-02-15T06:55:37;5.90;;;2.80;;
53072;SDS011;38955;48.916;2.336;2024-02-15T06:57:51;6.15;;;2.92;;
53072;SDS011;38955;48.916;2.336;2024-02-15T07:00:06;6.33;;;2.83;;
53072;SDS011;38955;48.916;2.336;2024-02-15T07:02:30;8.98;;;2.83;;
53072;SDS011;38955;48.916;2.336;2024-02-15T07:04:41;6.50;;;2.97;;
53072;SDS011;38955;48.916;2.336;2024-02-15T07:06:55;9.30;;;3.08;;
53072;SDS011;38955;48.916;2.336;2024-02-15T07:09:04;5.50;;;2.58;;
53072;SDS011;38955;48.916;2.336;2024-02-15T07:11:20;8.18;;;3.25;;
53072;SDS011;38955;48.916;2.336;2024-02-15T07:13:40;10.50;;;3.20;;
53072;SDS011;38955;48.916;2.336;2024-02-15T07:16:05;8.55;;;3.17;;
53072;SDS011;38955;48.916;2.336;2024-02-15T07:18:26;8.40;;;2.95;;
53072;SDS011;38955;48.916;2.336;2024-02-15T07:20:47;10.23;;;3.05;;
53072;SDS011;38955;48.916;2.336;2024-02-15T07:23:00;10.50;;;3.30;;
53072;SDS011;38955;48.916;2.336;2024-02-15T07:25:19;10.52;;;2.92;;
53072;SDS011;38955;48.916;2.336;2024-02-15T07:27:41;6.72;;;3.20;;
53072;SDS011;38955;48.916;2.336;2024-02-15T07:30:03;9.50;;;3.00;;
53072;SDS011;38955;48.916;2.336;2024-02-15T07:32:20;6.78;;;3.15;;
53072;SDS011;38955;48.916;2.336;2024-02-15T07:34:47;5.72;;;2.92;;
53072;SDS011;38955;48.916;2.336;2024-02-15T07:37:11;6.85;;;2.60;;
53072;SDS011;38955;48.916;2.336;2024-02-15T07:39:28;9.77;;;2.85;;
53072;SDS011;38955;48.916;2.336;2024-02-15T07:41:48;7.78;;;3.03;;
53072;SDS011;38955;48.916;2.336;2024-02-15T07:44:10;5.07;;;2.65;;
53072;SDS011;38955;48.916;2.336;2024-02-15T07:46:34;6.47;;;2.97;;
53072;SDS011;38955;48.916;2.336;2024-02-15T07:48:50;10.52;;;2.88;;
53072;SDS011;38955;48.916;2.336;2024-02-15T07:51:19;10.75;;;3.50;;
53072;SDS011;38955;48.916;2.336;2024-02-15T07:53:43;7.45;;;3.03;;
53072;SDS011;38955;48.916;2.336;2024-02-15T07:56:17;10.93;;;3.03;;
53072;SDS011;38955;48.916;2.336;2024-02-15T07:58:59;12.45;;;3.38;;
53072;SDS011;38955;48.916;2.336;2024-02-15T08:01:21;7.10;;;3.20;;
53072;SDS011;38955;48.916;2.336;2024-02-15T08:03:47;7.93;;;3.60;;
53072;SDS011;38955;48.916;2.336;2024-02-15T08:06:10;7.97;;;3.38;;
53072;SDS011;38955;48.916;2.336;2024-02-15T08:08:26;7.45;;;2.92;;
53072;SDS011;38955;48.916;2.336;2024-02-15T08:10:38;10.70;;;3.25;;
53072;SDS011;38955;48.916;2.336;2024-02-15T08:12:51;6.75;;;2.92;;
53072;SDS011;38955;48.916;2.336;2024-02-15T08:15:12;11.55;;;3.85;;
53072;SDS011;38955;48.916;2.336;2024-02-15T08:17:28;9.20;;;3.38;;
53072;SDS011;38955;48.916;2.336;2024-02-15T08:19:52;12.38;;;4.18;;
53072;SDS011;38955;48.916;2.336;2024-02-15T08:22:17;9.93;;;4.35;;
53072;SDS011;38955;48.916;2.336;2024-02-15T08:24:36;16.98;;;6.07;;
53072;SDS011;38955;48.916;2.336;2024-02-15T08:26:56;13.18;;;5.18;;
53072;SDS011;38955;48.916;2.336;2024-02-15T08:29:16;10.80;;;4.90;;
53072;SDS011;38955;48.916;2.336;2024-02-15T08:31:28;16.88;;;4.80;;
53072;SDS011;38955;48.916;2.336;2024-02-15T08:33:47;12.98;;;5.18;;
53072;SDS011;38955;48.916;2.336;2024-02-15T08:35:58;14.27;;;4.18;;
53072;SDS011;38955;48.916;2.336;2024-02-15T08:38:14;7.38;;;3.65;;
53072;SDS011;38955;48.916;2.336;2024-02-15T08:40:41;13.50;;;3.42;;
53072;SDS011;38955;48.916;2.336;2024-02-15T08:43:19;10.55;;;3.75;;
53072;SDS011;38955;48.916;2.336;2024-02-15T08:45:39;8.68;;;3.72;;
53072;SDS011;38955;48.916;2.336;2024-02-15T08:47:53;13.13;;;3.42;;
53072;SDS011;38955;48.916;2.336;2024-02-15T08:50:11;10.40;;;3.13;;
53072;SDS011;38955;48.916;2.336;2024-02-15T08:52:47;9.57;;;3.17;;
53072;SDS011;38955;48.916;2.336;2024-02-15T08:55:15;9.35;;;3.55;;
53072;SDS011;38955;48.916;2.336;2024-02-15T08:57:40;10.95;;;4.45;;
53072;SDS011;38955;48.916;2.336;2024-02-15T09:00:04;7.25;;;3.13;;
53072;SDS011;38955;48.916;2.336;2024-02-15T09:02:28;14.27;;;3.42;;
53072;SDS011;38955;48.916;2.336;2024-02-15T09:04:48;9.45;;;3.75;;
53072;SDS011;38955;48.916;2.336;2024-02-15T09:07:09;12.82;;;3.67;;
53072;SDS011;38955;48.916;2.336;2024-02-15T09:09:27;10.00;;;3.25;;
53072;SDS011;38955;48.916;2.336;2024-02-15T09:11:47;10.02;;;3.40;;
53072;SDS011;38955;48.916;2.336;2024-02-15T09:14:08;7.47;;;3.78;;
53072;SDS011;38955;48.916;2.336;2024-02-15T09:16:23;10.00;;;3.47;;
53072;SDS011;38955;48.916;2.336;2024-02-15T09:18:36;9.65;;;4.15;;
53072;SDS011;38955;48.916;2.336;2024-02-15T09:20:54;10.70;;;3.50;;
53072;SDS011;38955;48.916;2.336;2024-02-15T09:23:11;11.48;;;2.90;;
53072;SDS011;38955;48.916;2.336;2024-02-15T09:25:26;10.43;;;3.90;;
53072;SDS011;38955;48.916;2.336;2024-02-15T09:27:38;14.10;;;3.78;;
53072;SDS011;38955;48.916;2.336;2024-02-15T09:29:57;10.63;;;3.50;;
53072;SDS011;38955;48.916;2.336;2024-02-15T09:32:17;10.80;;;3.53;;
53072;SDS011;38955;48.916;2.336;2024-02-15T09:35:04;9.48;;;3.30;;
53072;SDS011;38955;48.916;2.336;2024-02-15T09:37:33;11.63;;;3.35;;
53072;SDS011;38955;48.916;2.336;2024-02-15T09:39:57;12.23;;;3.40;;
53072;SDS011;38955;48.916;2.336;2024-02-15T09:42:23;11.75;;;3.33;;
53072;SDS011;38955;48.916;2.336;2024-02-15T09:45:31;10.15;;;3.42;;
53072;SDS011;38955;48.916;2.336;2024-02-15T09:48:05;12.38;;;4.10;;
53072;SDS011;38955;48.916;2.336;2024-02-15T09:50:23;8.77;;;3.40;;
53072;SDS011;38955;48.916;2.336;2024-02-15T09:52:37;10.10;;;3.05;;
53072;SDS011;38955;48.916;2.336;2024-02-15T09:54:50;8.77;;;3.27;;
53072;SDS011;38955;48.916;2.336;2024-02-15T09:57:08;8.38;;;3.22;;
53072;SDS011;38955;48.916;2.336;2024-02-15T09:59:30;7.97;;;3.47;;
53072;SDS011;38955;48.916;2.336;2024-02-15T10:01:49;8.02;;;3.40;;
53072;SDS011;38955;48.916;2.336;2024-02-15T10:04:08;11.50;;;3.22;;
53072;SDS011;38955;48.916;2.336;2024-02-15T10:06:25;7.43;;;3.28;;
53072;SDS011;38955;48.916;2.336;2024-02-15T10:08:37;15.57;;;3.55;;
53072;SDS011;38955;48.916;2.336;2024-02-15T10:11:06;10.20;;;3.70;;
53072;SDS011;38955;48.916;2.336;2024-02-15T10:13:31;8.68;;;4.13;;
53072;SDS011;38955;48.916;2.336;2024-02-15T10:15:45;7.90;;;2.95;;
53072;SDS011;38955;48.916;2.336;2024-02-15T10:18:13;11.52;;;3.60;;
53072;SDS011;38955;48.916;2.336;2024-02-15T10:20:31;8.32;;;3.65;;
53072;SDS011;38955;48.916;2.336;2024-02-15T10:23:10;14.65;;;3.47;;
53072;SDS011;38955;48.916;2.336;2024-02-15T10:25:36;9.57;;;3.03;;
53072;SDS011;38955;48.916;2.336;2024-02-15T10:28:02;11.48;;;3.83;;
53072;SDS011;38955;48.916;2.336;2024-02-15T10:30:29;9.52;;;3.80;;
53072;SDS011;38955;48.916;2.336;2024-02-15T10:33:17;15.20;;;3.38;;
53072;SDS011;38955;48.916;2.336;2024-02-15T10:35:54;11.50;;;3.13;;
53072;SDS011;38955;48.916;2.336;2024-02-15T10:38:32;14.93;;;3.50;;
53072;SDS011;38955;48.916;2.336;2024-02-15T10:40:52;8.25;;;3.05;;
53072;SDS011;38955;48.916;2.336;2024-02-15T10:43:18;9.93;;;2.53;;
53072;SDS011;38955;48.916;2.336;2024-02-15T10:45:45;6.95;;;2.70;;
53072;SDS011;38955;48.916;2.336;2024-02-15T10:48:26;8.85;;;3.00;;
53072;SDS011;38955;48.916;2.336;2024-02-15T10:50:52;8.27;;;4.03;;
53072;SDS011;38955;48.916;2.336;2024-02-15T10:55:37;9.75;;;3.40;;
53072;SDS011;38955;48.916;2.336;2024-02-15T10:58:05;6.03;;;3.08;;
53072;SDS011;38955;48.916;2.336;2024-02-15T11:00:33;10.73;;;3.20;;
53072;SDS011;38955;48.916;2.336;2024-02-15T11:03:00;11.88;;;3.67;;
53072;SDS011;38955;48.916;2.336;2024-02-15T11:05:30;15.40;;;7.07;;
53072;SDS011;38955;48.916;2.336;2024-02-15T11:07:45;13.45;;;4.32;;
53072;SDS011;38955;48.916;2.336;2024-02-15T11:09:59;12.25;;;4.68;;
53072;SDS011;38955;48.916;2.336;2024-02-15T11:12:13;10.77;;;3.70;;
53072;SDS011;38955;48.916;2.336;2024-02-15T11:14:25;8.98;;;2.88;;
53072;SDS011;38955;48.916;2.336;2024-02-15T11:16:54;6.90;;;3.30;;
53072;SDS011;38955;48.916;2.336;2024-02-15T11:21:58;6.43;;;3.05;;
53072;SDS011;38955;48.916;2.336;2024-02-15T11:24:27;9.50;;;3.10;;
53072;SDS011;38955;48.916;2.336;2024-02-15T11:26:57;11.48;;;3.42;;
53072;SDS011;38955;48.916;2.336;2024-02-15T11:32:35;11.40;;;3.35;;
53072;SDS011;38955;48.916;2.336;2024-02-15T11:35:20;7.63;;;3.20;;
53072;SDS011;38955;48.916;2.336;2024-02-15T11:38:02;9.38;;;3.10;;
53072;SDS011;38955;48.916;2.336;2024-02-15T11:46:22;9.32;;;2.75;;
53072;SDS011;38955;48.916;2.336;2024-02-15T11:48:54;10.77;;;3.67;;
53072;SDS011;38955;48.916;2.336;2024-02-15T11:51:11;11.15;;;3.78;;
53072;SDS011;38955;48.916;2.336;2024-02-15T11:53:44;7.38;;;3.28;;
53072;SDS011;38955;48.916;2.336;2024-02-15T11:56:08;9.40;;;3.58;;
53072;SDS011;38955;48.916;2.336;2024-02-15T11:58:22;7.35;;;3.45;;
53072;SDS011;38955;48.916;2.336;2024-02-15T12:00:53;12.50;;;3.70;;
53072;SDS011;38955;48.916;2.336;2024-02-15T12:03:36;7.78;;;3.58;;
53072;SDS011;38955;48.916;2.336;2024-02-15T12:06:17;8.52;;;3.58;;
53072;SDS011;38955;48.916;2.336;2024-02-15T12:08:58;7.40;;;3.55;;
53072;SDS011;38955;48.916;2.336;2024-02-15T12:11:38;6.95;;;3.60;;
53072;SDS011;38955;48.916;2.336;2024-02-15T12:14:14;23.30;;;4.78;;
53072;SDS011;38955;48.916;2.336;2024-02-15T12:16:46;6.38;;;3.22;;
53072;SDS011;38955;48.916;2.336;2024-02-15T12:19:24;9.60;;;3.63;;
53072;SDS011;38955;48.916;2.336;2024-02-15T12:21:34;7.57;;;3.40;;
53072;SDS011;38955;48.916;2.336;2024-02-15T12:23:57;11.93;;;3.65;;
53072;SDS011;38955;48.916;2.336;2024-02-15T12:26:09;8.85;;;3.45;;
53072;SDS011;38955;48.916;2.336;2024-02-15T12:28:21;10.40;;;3.50;;
53072;SDS011;38955;48.916;2.336;2024-02-15T12:33:09;7.15;;;3.45;;
53072;SDS011;38955;48.916;2.336;2024-02-15T12:35:13;6.40;;;2.60;;
53072;SDS011;38955;48.916;2.336;2024-02-15T12:37:21;6.00;;;2.67;;
53072;SDS011;38955;48.916;2.336;2024-02-15T12:39:26;13.95;;;3.20;;
53072;SDS011;38955;48.916;2.336;2024-02-15T12:41:29;7.55;;;3.03;;
53072;SDS011;38955;48.916;2.336;2024-02-15T12:43:32;9.55;;;3.60;;
53072;SDS011;38955;48.916;2.336;2024-02-15T12:45:35;7.88;;;3.00;;
53072;SDS011;38955;48.916;2.336;2024-02-15T12:47:38;10.82;;;3.35;;
53072;SDS011;38955;48.916;2.336;2024-02-15T12:49:40;9.82;;;2.63;;
53072;SDS011;38955;48.916;2.336;2024-02-15T12:51:49;7.47;;;2.70;;
53072;SDS011;38955;48.916;2.336;2024-02-15T12:54:07;6.63;;;2.60;;
53072;SDS011;38955;48.916;2.336;2024-02-15T12:56:11;7.50;;;2.28;;
53072;SDS011;38955;48.916;2.336;2024-02-15T12:58:21;8.45;;;2.97;;
53072;SDS011;38955;48.916;2.336;2024-02-15T13:00:26;8.85;;;3.00;;
53072;SDS011;38955;48.916;2.336;2024-02-15T13:02:35;9.93;;;2.90;;
53072;SDS011;38955;48.916;2.336;2024-02-15T13:04:37;14.48;;;2.92;;
53072;SDS011;38955;48.916;2.336;2024-02-15T13:06:40;10.35;;;3.03;;
53072;SDS011;38955;48.916;2.336;2024-02-15T13:08:42;7.72;;;2.70;;
53072;SDS011;38955;48.916;2.336;2024-02-15T13:10:46;8.75;;;3.08;;
53072;SDS011;38955;48.916;2.336;2024-02-15T13:12:50;6.40;;;2.85;;
53072;SDS011;38955;48.916;2.336;2024-02-15T13:14:53;5.78;;;2.83;;
53072;SDS011;38955;48.916;2.336;2024-02-15T13:16:56;8.88;;;2.90;;
53072;SDS011;38955;48.916;2.336;2024-02-15T13:18:59;6.53;;;2.63;;
53072;SDS011;38955;48.916;2.336;2024-02-15T13:21:02;6.55;;;2.67;;
53072;SDS011;38955;48.916;2.336;2024-02-15T13:23:09;5.57;;;2.85;;
53072;SDS011;38955;48.916;2.336;2024-02-15T13:25:23;8.65;;;2.70;;
53072;SDS011;38955;48.916;2.336;2024-02-15T13:27:26;8.35;;;2.65;;
53072;SDS011;38955;48.916;2.336;2024-02-15T13:29:29;10.77;;;3.10;;
53072;SDS011;38955;48.916;2.336;2024-02-15T13:31:34;9.18;;;2.78;;
53072;SDS011;38955;48.916;2.336;2024-02-15T13:33:36;6.40;;;2.90;;
53072;SDS011;38955;48.916;2.336;2024-02-15T13:35:38;14.75;;;2.78;;
53072;SDS011;38955;48.916;2.336;2024-02-15T13:37:41;7.45;;;2.72;;
53072;SDS011;38955;48.916;2.336;2024-02-15T13:39:44;5.60;;;2.38;;
53072;SDS011;38955;48.916;2.336;2024-02-15T13:41:47;6.97;;;2.47;;
53072;SDS011;38955;48.916;2.336;2024-02-15T13:43:49;8.63;;;2.70;;
53072;SDS011;38955;48.916;2.336;2024-02-15T13:45:52;11.88;;;2.50;;
53072;SDS011;38955;48.916;2.336;2024-02-15T13:49:58;6.05;;;2.30;;
53072;SDS011;38955;48.916;2.336;2024-02-15T13:52:01;7.65;;;2.28;;
53072;SDS011;38955;48.916;2.336;2024-02-15T13:54:04;4.90;;;2.50;;
53072;SDS011;38955;48.916;2.336;2024-02-15T13:56:07;9.75;;;2.75;;
53072;SDS011;38955;48.916;2.336;2024-02-15T13:58:11;6.03;;;2.47;;
53072;SDS011;38955;48.916;2.336;2024-02-15T14:00:15;7.22;;;2.60;;
53072;SDS011;38955;48.916;2.336;2024-02-15T14:02:25;6.80;;;2.53;;
53072;SDS011;38955;48.916;2.336;2024-02-15T14:04:29;7.32;;;2.67;;
53072;SDS011;38955;48.916;2.336;2024-02-15T14:06:33;7.50;;;2.80;;
53072;SDS011;38955;48.916;2.336;2024-02-15T14:08:37;10.63;;;2.83;;
53072;SDS011;38955;48.916;2.336;2024-02-15T14:10:39;10.02;;;2.55;;
53072;SDS011;38955;48.916;2.336;2024-02-15T14:12:42;6.47;;;2.20;;